sensor_id;sensor_type;location;lat;lon;timestamp;P1;durP1;ratioP1;P2;durP2;ratioP2
54263;SDS011;40178;53.042;6.406;2023-08-01T00:01:27;12.35;;;3.33;;
54263;SDS011;40178;53.042;6.406;2023-08-01T00:03:53;9.35;;;2.80;;
54263;SDS011;40178;53.042;6.406;2023-08-01T00:06:19;9.23;;;2.75;;
54263;SDS011;40178;53.042;6.406;2023-08-01T00:08:45;10.85;;;3.72;;
54263;SDS011;40178;53.042;6.406;2023-08-01T00:11:10;13.70;;;3.90;;
54263;SDS011;40178;53.042;6.406;2023-08-01T00:13:36;9.55;;;3.17;;
54263;SDS011;40178;53.042;6.406;2023-08-01T00:16:02;6.55;;;2.42;;
54263;SDS011;40178;53.042;6.406;2023-08-01T00:18:28;6.72;;;2.88;;
54263;SDS011;40178;53.042;6.406;2023-08-01T00:20:53;9.27;;;3.08;;
54263;SDS011;40178;53.042;6.406;2023-08-01T00:23:19;6.85;;;2.90;;
54263;SDS011;40178;53.042;6.406;2023-08-01T00:25:45;7.20;;;3.00;;
54263;SDS011;40178;53.042;6.406;2023-08-01T00:28:16;6.85;;;3.10;;
54263;SDS011;40178;53.042;6.406;2023-08-01T00:30:48;8.55;;;3.45;;
54263;SDS011;40178;53.042;6.406;2023-08-01T00:33:14;9.63;;;3.25;;
54263;SDS011;40178;53.042;6.406;2023-08-01T00:35:40;7.05;;;2.55;;
54263;SDS011;40178;53.042;6.406;2023-08-01T00:38:06;9.48;;;3.78;;
54263;SDS011;40178;53.042;6.406;2023-08-01T00:40:31;9.68;;;2.92;;
54263;SDS011;40178;53.042;6.406;2023-08-01T00:42:58;9.27;;;3.45;;
54263;SDS011;40178;53.042;6.406;2023-08-01T00:45:24;9.50;;;2.90;;
54263;SDS011;40178;53.042;6.406;2023-08-01T00:47:51;8.18;;;2.70;;
54263;SDS011;40178;53.042;6.406;2023-08-01T00:50:17;7.55;;;3.10;;
54263;SDS011;40178;53.042;6.406;2023-08-01T00:52:45;6.60;;;3.10;;
54263;SDS011;40178;53.042;6.406;2023-08-01T00:55:12;6.50;;;2.78;;
54263;SDS011;40178;53.042;6.406;2023-08-01T00:57:39;7.40;;;3.28;;
54263;SDS011;40178;53.042;6.406;2023-08-01T01:00:05;7.20;;;2.95;;
54263;SDS011;40178;53.042;6.406;2023-08-01T01:02:31;6.45;;;2.90;;
54263;SDS011;40178;53.042;6.406;2023-08-01T01:04:57;7.20;;;3.15;;
54263;SDS011;40178;53.042;6.406;2023-08-01T01:07:23;7.93;;;2.40;;
54263;SDS011;40178;53.042;6.406;2023-08-01T01:09:49;6.43;;;2.63;;
54263;SDS011;40178;53.042;6.406;2023-08-01T01:12:15;6.43;;;2.47;;
54263;SDS011;40178;53.042;6.406;2023-08-01T01:14:41;5.20;;;2.10;;
54263;SDS011;40178;53.042;6.406;2023-08-01T01:17:06;7.95;;;2.78;;
54263;SDS011;40178;53.042;6.406;2023-08-01T01:19:32;8.93;;;2.80;;
54263;SDS011;40178;53.042;6.406;2023-08-01T01:21:58;9.60;;;2.97;;
54263;SDS011;40178;53.042;6.406;2023-08-01T01:24:24;6.60;;;2.60;;
54263;SDS011;40178;53.042;6.406;2023-08-01T01:26:50;7.97;;;2.50;;
54263;SDS011;40178;53.042;6.406;2023-08-01T01:29:18;5.10;;;2.30;;
54263;SDS011;40178;53.042;6.406;2023-08-01T01:31:45;5.80;;;2.58;;
54263;SDS011;40178;53.042;6.406;2023-08-01T01:34:13;9.52;;;2.55;;
54263;SDS011;40178;53.042;6.406;2023-08-01T01:36:38;6.53;;;2.95;;
54263;SDS011;40178;53.042;6.406;2023-08-01T01:39:04;8.05;;;3.22;;
54263;SDS011;40178;53.042;6.406;2023-08-01T01:41:30;8.82;;;2.80;;
54263;SDS011;40178;53.042;6.406;2023-08-01T01:43:56;7.97;;;3.10;;
54263;SDS011;40178;53.042;6.406;2023-08-01T01:46:21;10.10;;;2.80;;
54263;SDS011;40178;53.042;6.406;2023-08-01T01:48:47;11.27;;;3.45;;
54263;SDS011;40178;53.042;6.406;2023-08-01T01:51:13;9.85;;;2.90;;
54263;SDS011;40178;53.042;6.406;2023-08-01T01:53:38;5.97;;;3.15;;
54263;SDS011;40178;53.042;6.406;2023-08-01T01:56:04;7.78;;;3.03;;
54263;SDS011;40178;53.042;6.406;2023-08-01T01:58:29;8.80;;;3.28;;
54263;SDS011;40178;53.042;6.406;2023-08-01T02:00:55;10.68;;;3.55;;
54263;SDS011;40178;53.042;6.406;2023-08-01T02:03:20;7.80;;;3.20;;
54263;SDS011;40178;53.042;6.406;2023-08-01T02:05:46;8.90;;;2.97;;
54263;SDS011;40178;53.042;6.406;2023-08-01T02:08:12;6.93;;;3.30;;
54263;SDS011;40178;53.042;6.406;2023-08-01T02:10:38;8.48;;;3.10;;
54263;SDS011;40178;53.042;6.406;2023-08-01T02:13:04;7.60;;;3.25;;
54263;SDS011;40178;53.042;6.406;2023-08-01T02:15:29;9.27;;;3.05;;
54263;SDS011;40178;53.042;6.406;2023-08-01T02:17:55;10.23;;;2.90;;
54263;SDS011;40178;53.042;6.406;2023-08-01T02:20:21;11.07;;;3.25;;
54263;SDS011;40178;53.042;6.406;2023-08-01T02:22:47;9.65;;;3.22;;
54263;SDS011;40178;53.042;6.406;2023-08-01T02:25:12;9.38;;;3.70;;
54263;SDS011;40178;53.042;6.406;2023-08-01T02:27:38;8.25;;;3.40;;
54263;SDS011;40178;53.042;6.406;2023-08-01T02:30:03;8.40;;;3.45;;
54263;SDS011;40178;53.042;6.406;2023-08-01T02:32:30;8.18;;;3.50;;
54263;SDS011;40178;53.042;6.406;2023-08-01T02:34:56;13.60;;;4.30;;
54263;SDS011;40178;53.042;6.406;2023-08-01T02:37:21;11.07;;;4.15;;
54263;SDS011;40178;53.042;6.406;2023-08-01T02:39:47;11.02;;;4.20;;
54263;SDS011;40178;53.042;6.406;2023-08-01T02:42:13;12.52;;;3.55;;
54263;SDS011;40178;53.042;6.406;2023-08-01T02:44:38;13.75;;;3.85;;
54263;SDS011;40178;53.042;6.406;2023-08-01T02:47:04;10.40;;;3.60;;
54263;SDS011;40178;53.042;6.406;2023-08-01T02:49:31;9.57;;;3.80;;
54263;SDS011;40178;53.042;6.406;2023-08-01T02:51:56;7.68;;;3.85;;
54263;SDS011;40178;53.042;6.406;2023-08-01T02:54:23;18.15;;;4.65;;
54263;SDS011;40178;53.042;6.406;2023-08-01T02:56:49;12.65;;;4.40;;
54263;SDS011;40178;53.042;6.406;2023-08-01T02:59:16;8.13;;;3.78;;
54263;SDS011;40178;53.042;6.406;2023-08-01T03:01:43;12.07;;;4.72;;
54263;SDS011;40178;53.042;6.406;2023-08-01T03:04:09;15.57;;;4.70;;
54263;SDS011;40178;53.042;6.406;2023-08-01T03:06:37;11.02;;;4.25;;
54263;SDS011;40178;53.042;6.406;2023-08-01T03:09:03;14.85;;;4.43;;
54263;SDS011;40178;53.042;6.406;2023-08-01T03:11:32;12.13;;;5.20;;
54263;SDS011;40178;53.042;6.406;2023-08-01T03:14:02;12.25;;;4.50;;
54263;SDS011;40178;53.042;6.406;2023-08-01T03:16:29;15.88;;;5.57;;
54263;SDS011;40178;53.042;6.406;2023-08-01T03:18:55;11.95;;;5.00;;
54263;SDS011;40178;53.042;6.406;2023-08-01T03:21:21;11.82;;;4.65;;
54263;SDS011;40178;53.042;6.406;2023-08-01T03:23:47;10.82;;;3.95;;
54263;SDS011;40178;53.042;6.406;2023-08-01T03:26:12;8.45;;;3.17;;
54263;SDS011;40178;53.042;6.406;2023-08-01T03:28:40;9.63;;;3.58;;
54263;SDS011;40178;53.042;6.406;2023-08-01T03:31:06;10.27;;;2.92;;
54263;SDS011;40178;53.042;6.406;2023-08-01T03:33:32;9.20;;;3.13;;
54263;SDS011;40178;53.042;6.406;2023-08-01T03:35:58;6.22;;;2.10;;
54263;SDS011;40178;53.042;6.406;2023-08-01T03:38:24;6.40;;;2.80;;
54263;SDS011;40178;53.042;6.406;2023-08-01T03:40:50;6.20;;;2.20;;
54263;SDS011;40178;53.042;6.406;2023-08-01T03:43:15;7.70;;;2.35;;
54263;SDS011;40178;53.042;6.406;2023-08-01T03:45:41;8.48;;;2.28;;
54263;SDS011;40178;53.042;6.406;2023-08-01T03:48:07;6.25;;;1.67;;
54263;SDS011;40178;53.042;6.406;2023-08-01T03:50:32;9.07;;;2.17;;
54263;SDS011;40178;53.042;6.406;2023-08-01T03:52:58;7.68;;;2.10;;
54263;SDS011;40178;53.042;6.406;2023-08-01T03:55:23;8.52;;;2.05;;
54263;SDS011;40178;53.042;6.406;2023-08-01T03:57:49;7.30;;;2.15;;
54263;SDS011;40178;53.042;6.406;2023-08-01T04:00:15;7.82;;;1.90;;
54263;SDS011;40178;53.042;6.406;2023-08-01T04:02:43;7.10;;;2.00;;
54263;SDS011;40178;53.042;6.406;2023-08-01T04:05:09;6.50;;;2.30;;
54263;SDS011;40178;53.042;6.406;2023-08-01T04:07:35;4.95;;;1.60;;
54263;SDS011;40178;53.042;6.406;2023-08-01T04:10:04;7.72;;;1.80;;
54263;SDS011;40178;53.042;6.406;2023-08-01T04:12:31;7.00;;;2.28;;
54263;SDS011;40178;53.042;6.406;2023-08-01T04:14:58;6.22;;;1.55;;
54263;SDS011;40178;53.042;6.406;2023-08-01T04:17:24;9.45;;;1.65;;
54263;SDS011;40178;53.042;6.406;2023-08-01T04:19:49;7.32;;;1.38;;
54263;SDS011;40178;53.042;6.406;2023-08-01T04:22:15;7.68;;;2.13;;
54263;SDS011;40178;53.042;6.406;2023-08-01T04:24:41;5.55;;;1.50;;
54263;SDS011;40178;53.042;6.406;2023-08-01T04:27:06;7.28;;;1.75;;
54263;SDS011;40178;53.042;6.406;2023-08-01T04:29:32;6.95;;;1.60;;
54263;SDS011;40178;53.042;6.406;2023-08-01T04:31:58;5.57;;;1.58;;
54263;SDS011;40178;53.042;6.406;2023-08-01T04:34:23;5.07;;;1.55;;
54263;SDS011;40178;53.042;6.406;2023-08-01T04:36:49;6.00;;;1.77;;
54263;SDS011;40178;53.042;6.406;2023-08-01T04:39:15;4.13;;;1.80;;
54263;SDS011;40178;53.042;6.406;2023-08-01T04:41:40;5.07;;;1.60;;
54263;SDS011;40178;53.042;6.406;2023-08-01T04:44:06;3.55;;;1.35;;
54263;SDS011;40178;53.042;6.406;2023-08-01T04:46:32;6.35;;;1.45;;
54263;SDS011;40178;53.042;6.406;2023-08-01T04:48:57;4.18;;;1.45;;
54263;SDS011;40178;53.042;6.406;2023-08-01T04:51:24;4.53;;;1.40;;
54263;SDS011;40178;53.042;6.406;2023-08-01T04:53:50;3.97;;;1.33;;
54263;SDS011;40178;53.042;6.406;2023-08-01T04:56:15;4.47;;;1.65;;
54263;SDS011;40178;53.042;6.406;2023-08-01T04:58:41;5.32;;;1.25;;
54263;SDS011;40178;53.042;6.406;2023-08-01T05:01:07;5.10;;;1.10;;
54263;SDS011;40178;53.042;6.406;2023-08-01T05:03:32;3.67;;;1.20;;
54263;SDS011;40178;53.042;6.406;2023-08-01T05:05:58;5.35;;;1.40;;
54263;SDS011;40178;53.042;6.406;2023-08-01T05:08:23;5.80;;;1.40;;
54263;SDS011;40178;53.042;6.406;2023-08-01T05:10:49;5.55;;;1.20;;
54263;SDS011;40178;53.042;6.406;2023-08-01T05:13:15;4.47;;;1.73;;
54263;SDS011;40178;53.042;6.406;2023-08-01T05:15:43;4.75;;;1.15;;
54263;SDS011;40178;53.042;6.406;2023-08-01T05:18:10;4.40;;;1.70;;
54263;SDS011;40178;53.042;6.406;2023-08-01T05:20:35;4.00;;;1.55;;
54263;SDS011;40178;53.042;6.406;2023-08-01T05:23:01;5.45;;;1.42;;
54263;SDS011;40178;53.042;6.406;2023-08-01T05:25:27;3.15;;;1.23;;
54263;SDS011;40178;53.042;6.406;2023-08-01T05:27:52;6.05;;;1.90;;
54263;SDS011;40178;53.042;6.406;2023-08-01T05:30:18;3.78;;;1.33;;
54263;SDS011;40178;53.042;6.406;2023-08-01T05:32:44;4.65;;;1.75;;
54263;SDS011;40178;53.042;6.406;2023-08-01T05:35:10;3.58;;;1.30;;
54263;SDS011;40178;53.042;6.406;2023-08-01T05:37:36;3.20;;;1.23;;
54263;SDS011;40178;53.042;6.406;2023-08-01T05:40:02;6.05;;;1.95;;
54263;SDS011;40178;53.042;6.406;2023-08-01T05:42:28;4.45;;;1.80;;
54263;SDS011;40178;53.042;6.406;2023-08-01T05:44:54;4.40;;;1.67;;
54263;SDS011;40178;53.042;6.406;2023-08-01T05:47:20;4.18;;;1.65;;
54263;SDS011;40178;53.042;6.406;2023-08-01T05:49:47;4.93;;;1.45;;
54263;SDS011;40178;53.042;6.406;2023-08-01T05:52:13;4.20;;;1.48;;
54263;SDS011;40178;53.042;6.406;2023-08-01T05:54:39;5.50;;;1.58;;
54263;SDS011;40178;53.042;6.406;2023-08-01T05:57:05;7.10;;;2.30;;
54263;SDS011;40178;53.042;6.406;2023-08-01T05:59:31;4.43;;;1.63;;
54263;SDS011;40178;53.042;6.406;2023-08-01T06:01:56;4.15;;;1.60;;
54263;SDS011;40178;53.042;6.406;2023-08-01T06:04:22;3.58;;;1.35;;
54263;SDS011;40178;53.042;6.406;2023-08-01T06:06:48;8.73;;;1.85;;
54263;SDS011;40178;53.042;6.406;2023-08-01T06:09:14;5.28;;;1.60;;
54263;SDS011;40178;53.042;6.406;2023-08-01T06:11:39;5.45;;;1.80;;
54263;SDS011;40178;53.042;6.406;2023-08-01T06:14:05;7.05;;;1.60;;
54263;SDS011;40178;53.042;6.406;2023-08-01T06:16:31;4.25;;;1.50;;
54263;SDS011;40178;53.042;6.406;2023-08-01T06:18:57;7.43;;;1.92;;
54263;SDS011;40178;53.042;6.406;2023-08-01T06:21:23;4.88;;;1.60;;
54263;SDS011;40178;53.042;6.406;2023-08-01T06:23:49;4.32;;;1.95;;
54263;SDS011;40178;53.042;6.406;2023-08-01T06:26:14;7.05;;;1.75;;
54263;SDS011;40178;53.042;6.406;2023-08-01T06:28:40;4.43;;;1.98;;
54263;SDS011;40178;53.042;6.406;2023-08-01T06:31:06;4.60;;;2.00;;
54263;SDS011;40178;53.042;6.406;2023-08-01T06:33:32;5.13;;;1.90;;
54263;SDS011;40178;53.042;6.406;2023-08-01T06:35:58;5.40;;;1.83;;
54263;SDS011;40178;53.042;6.406;2023-08-01T06:38:23;9.15;;;2.17;;
54263;SDS011;40178;53.042;6.406;2023-08-01T06:40:49;5.35;;;1.95;;
54263;SDS011;40178;53.042;6.406;2023-08-01T06:43:14;6.15;;;2.03;;
54263;SDS011;40178;53.042;6.406;2023-08-01T06:45:40;3.92;;;2.17;;
54263;SDS011;40178;53.042;6.406;2023-08-01T06:48:06;6.40;;;1.60;;
54263;SDS011;40178;53.042;6.406;2023-08-01T06:50:31;8.95;;;2.15;;
54263;SDS011;40178;53.042;6.406;2023-08-01T06:52:57;5.55;;;1.70;;
54263;SDS011;40178;53.042;6.406;2023-08-01T06:55:22;5.35;;;2.13;;
54263;SDS011;40178;53.042;6.406;2023-08-01T06:57:48;5.88;;;1.83;;
54263;SDS011;40178;53.042;6.406;2023-08-01T07:00:14;6.03;;;1.88;;
54263;SDS011;40178;53.042;6.406;2023-08-01T07:02:39;8.38;;;1.67;;
54263;SDS011;40178;53.042;6.406;2023-08-01T07:05:05;8.25;;;1.48;;
54263;SDS011;40178;53.042;6.406;2023-08-01T07:07:31;11.40;;;1.58;;
54263;SDS011;40178;53.042;6.406;2023-08-01T07:09:57;5.32;;;1.50;;
54263;SDS011;40178;53.042;6.406;2023-08-01T07:12:22;7.22;;;1.75;;
54263;SDS011;40178;53.042;6.406;2023-08-01T07:14:48;3.97;;;1.70;;
54263;SDS011;40178;53.042;6.406;2023-08-01T07:17:13;7.05;;;1.60;;
54263;SDS011;40178;53.042;6.406;2023-08-01T07:19:39;4.53;;;1.40;;
54263;SDS011;40178;53.042;6.406;2023-08-01T07:22:05;2.65;;;1.23;;
54263;SDS011;40178;53.042;6.406;2023-08-01T07:24:30;2.95;;;1.17;;
54263;SDS011;40178;53.042;6.406;2023-08-01T07:26:56;8.23;;;1.40;;
54263;SDS011;40178;53.042;6.406;2023-08-01T07:29:21;6.15;;;1.25;;
54263;SDS011;40178;53.042;6.406;2023-08-01T07:31:47;8.90;;;1.27;;
54263;SDS011;40178;53.042;6.406;2023-08-01T07:34:13;4.75;;;1.02;;
54263;SDS011;40178;53.042;6.406;2023-08-01T07:36:38;5.70;;;0.90;;
54263;SDS011;40178;53.042;6.406;2023-08-01T07:39:04;2.72;;;0.93;;
54263;SDS011;40178;53.042;6.406;2023-08-01T07:41:30;4.05;;;1.17;;
54263;SDS011;40178;53.042;6.406;2023-08-01T07:43:55;3.58;;;1.20;;
54263;SDS011;40178;53.042;6.406;2023-08-01T07:46:21;3.95;;;1.00;;
54263;SDS011;40178;53.042;6.406;2023-08-01T07:48:46;5.68;;;1.40;;
54263;SDS011;40178;53.042;6.406;2023-08-01T07:51:14;4.18;;;1.23;;
54263;SDS011;40178;53.042;6.406;2023-08-01T07:53:39;5.07;;;1.08;;
54263;SDS011;40178;53.042;6.406;2023-08-01T07:56:05;6.85;;;1.20;;
54263;SDS011;40178;53.042;6.406;2023-08-01T07:58:33;6.63;;;2.10;;
54263;SDS011;40178;53.042;6.406;2023-08-01T08:01:04;6.70;;;1.70;;
54263;SDS011;40178;53.042;6.406;2023-08-01T08:03:30;4.25;;;1.40;;
54263;SDS011;40178;53.042;6.406;2023-08-01T08:05:56;5.20;;;1.77;;
54263;SDS011;40178;53.042;6.406;2023-08-01T08:08:21;6.20;;;1.20;;
54263;SDS011;40178;53.042;6.406;2023-08-01T08:10:47;4.20;;;1.20;;
54263;SDS011;40178;53.042;6.406;2023-08-01T08:13:12;4.20;;;1.40;;
54263;SDS011;40178;53.042;6.406;2023-08-01T08:15:38;3.65;;;1.42;;
54263;SDS011;40178;53.042;6.406;2023-08-01T08:18:04;5.88;;;1.52;;
54263;SDS011;40178;53.042;6.406;2023-08-01T08:20:30;3.53;;;1.33;;
54263;SDS011;40178;53.042;6.406;2023-08-01T08:22:56;3.88;;;1.15;;
54263;SDS011;40178;53.042;6.406;2023-08-01T08:25:22;4.00;;;1.10;;
54263;SDS011;40178;53.042;6.406;2023-08-01T08:27:50;3.25;;;1.50;;
54263;SDS011;40178;53.042;6.406;2023-08-01T08:30:16;2.90;;;0.90;;
54263;SDS011;40178;53.042;6.406;2023-08-01T08:32:42;4.60;;;1.30;;
54263;SDS011;40178;53.042;6.406;2023-08-01T08:35:07;5.68;;;1.48;;
54263;SDS011;40178;53.042;6.406;2023-08-01T08:37:33;9.82;;;2.42;;
54263;SDS011;40178;53.042;6.406;2023-08-01T08:39:59;4.05;;;1.55;;
54263;SDS011;40178;53.042;6.406;2023-08-01T08:42:24;4.25;;;1.33;;
54263;SDS011;40178;53.042;6.406;2023-08-01T08:44:52;3.50;;;1.40;;
54263;SDS011;40178;53.042;6.406;2023-08-01T08:47:21;6.47;;;1.70;;
54263;SDS011;40178;53.042;6.406;2023-08-01T08:49:49;4.05;;;1.50;;
54263;SDS011;40178;53.042;6.406;2023-08-01T08:52:16;5.13;;;2.00;;
54263;SDS011;40178;53.042;6.406;2023-08-01T08:54:43;4.07;;;1.38;;
54263;SDS011;40178;53.042;6.406;2023-08-01T08:57:09;4.22;;;1.48;;
54263;SDS011;40178;53.042;6.406;2023-08-01T08:59:35;5.05;;;1.60;;
54263;SDS011;40178;53.042;6.406;2023-08-01T09:02:02;3.47;;;1.02;;
54263;SDS011;40178;53.042;6.406;2023-08-01T09:04:29;3.40;;;1.52;;
54263;SDS011;40178;53.042;6.406;2023-08-01T09:06:58;4.45;;;1.58;;
54263;SDS011;40178;53.042;6.406;2023-08-01T09:09:27;5.80;;;1.63;;
54263;SDS011;40178;53.042;6.406;2023-08-01T09:11:53;5.18;;;1.67;;
54263;SDS011;40178;53.042;6.406;2023-08-01T09:14:21;8.90;;;1.65;;
54263;SDS011;40178;53.042;6.406;2023-08-01T09:16:47;4.00;;;1.30;;
54263;SDS011;40178;53.042;6.406;2023-08-01T09:19:20;4.85;;;1.50;;
54263;SDS011;40178;53.042;6.406;2023-08-01T09:21:47;6.28;;;1.65;;
54263;SDS011;40178;53.042;6.406;2023-08-01T09:24:14;4.13;;;1.50;;
54263;SDS011;40178;53.042;6.406;2023-08-01T09:26:41;5.32;;;1.80;;
54263;SDS011;40178;53.042;6.406;2023-08-01T09:29:07;5.10;;;1.90;;
54263;SDS011;40178;53.042;6.406;2023-08-01T09:31:34;3.22;;;1.38;;
54263;SDS011;40178;53.042;6.406;2023-08-01T09:34:01;5.57;;;1.48;;
54263;SDS011;40178;53.042;6.406;2023-08-01T09:36:32;5.20;;;1.58;;
54263;SDS011;40178;53.042;6.406;2023-08-01T09:39:01;4.72;;;1.80;;
54263;SDS011;40178;53.042;6.406;2023-08-01T09:41:31;5.20;;;1.60;;
54263;SDS011;40178;53.042;6.406;2023-08-01T09:43:57;6.32;;;1.60;;
54263;SDS011;40178;53.042;6.406;2023-08-01T09:46:23;3.45;;;1.50;;
54263;SDS011;40178;53.042;6.406;2023-08-01T09:48:49;5.60;;;1.65;;
54263;SDS011;40178;53.042;6.406;2023-08-01T09:51:15;7.32;;;1.90;;
54263;SDS011;40178;53.042;6.406;2023-08-01T09:53:46;4.93;;;1.92;;
54263;SDS011;40178;53.042;6.406;2023-08-01T09:56:19;7.80;;;1.95;;
54263;SDS011;40178;53.042;6.406;2023-08-01T09:58:46;5.05;;;1.60;;
54263;SDS011;40178;53.042;6.406;2023-08-01T10:01:16;6.07;;;1.80;;
54263;SDS011;40178;53.042;6.406;2023-08-01T10:03:44;7.20;;;2.63;;
54263;SDS011;40178;53.042;6.406;2023-08-01T10:06:17;6.85;;;2.00;;
54263;SDS011;40178;53.042;6.406;2023-08-01T10:08:47;6.22;;;2.25;;
54263;SDS011;40178;53.042;6.406;2023-08-01T10:11:14;6.90;;;1.67;;
54263;SDS011;40178;53.042;6.406;2023-08-01T10:13:42;4.70;;;1.77;;
54263;SDS011;40178;53.042;6.406;2023-08-01T10:16:09;4.82;;;1.90;;
54263;SDS011;40178;53.042;6.406;2023-08-01T10:18:36;4.63;;;1.83;;
54263;SDS011;40178;53.042;6.406;2023-08-01T10:21:03;5.22;;;2.08;;
54263;SDS011;40178;53.042;6.406;2023-08-01T10:23:30;6.70;;;2.05;;
54263;SDS011;40178;53.042;6.406;2023-08-01T10:25:58;4.72;;;2.20;;
54263;SDS011;40178;53.042;6.406;2023-08-01T10:28:34;6.05;;;2.13;;
54263;SDS011;40178;53.042;6.406;2023-08-01T10:31:15;8.05;;;1.80;;
54263;SDS011;40178;53.042;6.406;2023-08-01T10:33:43;6.57;;;2.05;;
54263;SDS011;40178;53.042;6.406;2023-08-01T10:36:17;4.95;;;1.85;;
54263;SDS011;40178;53.042;6.406;2023-08-01T10:38:58;8.00;;;2.67;;
54263;SDS011;40178;53.042;6.406;2023-08-01T10:44:08;7.15;;;3.00;;
54263;SDS011;40178;53.042;6.406;2023-08-01T10:46:51;3.50;;;1.67;;
54263;SDS011;40178;53.042;6.406;2023-08-01T10:49:18;9.70;;;1.80;;
54263;SDS011;40178;53.042;6.406;2023-08-01T10:51:46;4.38;;;1.60;;
54263;SDS011;40178;53.042;6.406;2023-08-01T10:54:22;5.07;;;1.70;;
54263;SDS011;40178;53.042;6.406;2023-08-01T10:56:49;7.60;;;1.80;;
54263;SDS011;40178;53.042;6.406;2023-08-01T10:59:17;5.35;;;1.70;;
54263;SDS011;40178;53.042;6.406;2023-08-01T11:01:52;5.80;;;1.20;;
54263;SDS011;40178;53.042;6.406;2023-08-01T11:04:19;3.28;;;1.20;;
54263;SDS011;40178;53.042;6.406;2023-08-01T11:06:50;5.22;;;1.27;;
54263;SDS011;40178;53.042;6.406;2023-08-01T11:09:21;8.15;;;1.30;;
54263;SDS011;40178;53.042;6.406;2023-08-01T11:11:53;6.57;;;1.42;;
54263;SDS011;40178;53.042;6.406;2023-08-01T11:14:20;4.80;;;1.50;;
54263;SDS011;40178;53.042;6.406;2023-08-01T11:16:50;4.05;;;1.00;;
54263;SDS011;40178;53.042;6.406;2023-08-01T11:19:25;7.18;;;1.50;;
54263;SDS011;40178;53.042;6.406;2023-08-01T11:21:53;4.97;;;1.00;;
54263;SDS011;40178;53.042;6.406;2023-08-01T11:24:21;4.03;;;0.98;;
54263;SDS011;40178;53.042;6.406;2023-08-01T11:26:48;3.53;;;0.68;;
54263;SDS011;40178;53.042;6.406;2023-08-01T11:29:15;3.30;;;0.80;;
54263;SDS011;40178;53.042;6.406;2023-08-01T11:31:46;4.65;;;1.13;;
54263;SDS011;40178;53.042;6.406;2023-08-01T11:34:23;4.43;;;1.17;;
54263;SDS011;40178;53.042;6.406;2023-08-01T11:36:49;4.20;;;0.82;;
54263;SDS011;40178;53.042;6.406;2023-08-01T11:39:15;5.95;;;1.27;;
54263;SDS011;40178;53.042;6.406;2023-08-01T11:41:42;3.63;;;0.80;;
54263;SDS011;40178;53.042;6.406;2023-08-01T11:44:09;3.85;;;0.85;;
54263;SDS011;40178;53.042;6.406;2023-08-01T11:46:36;7.40;;;1.15;;
54263;SDS011;40178;53.042;6.406;2023-08-01T11:49:03;3.80;;;1.30;;
54263;SDS011;40178;53.042;6.406;2023-08-01T11:51:43;2.80;;;1.23;;
54263;SDS011;40178;53.042;6.406;2023-08-01T11:54:10;5.72;;;1.15;;
54263;SDS011;40178;53.042;6.406;2023-08-01T11:56:40;2.92;;;0.82;;
54263;SDS011;40178;53.042;6.406;2023-08-01T11:59:16;3.28;;;0.73;;
54263;SDS011;40178;53.042;6.406;2023-08-01T12:01:43;5.05;;;1.20;;
54263;SDS011;40178;53.042;6.406;2023-08-01T12:04:10;3.70;;;1.20;;
54263;SDS011;40178;53.042;6.406;2023-08-01T12:06:36;3.40;;;0.90;;
54263;SDS011;40178;53.042;6.406;2023-08-01T12:09:08;2.83;;;1.15;;
54263;SDS011;40178;53.042;6.406;2023-08-01T12:11:36;3.58;;;0.82;;
54263;SDS011;40178;53.042;6.406;2023-08-01T12:14:03;4.20;;;1.25;;
54263;SDS011;40178;53.042;6.406;2023-08-01T12:16:29;5.68;;;1.17;;
54263;SDS011;40178;53.042;6.406;2023-08-01T12:18:55;3.78;;;1.08;;
54263;SDS011;40178;53.042;6.406;2023-08-01T12:21:21;3.97;;;1.10;;
54263;SDS011;40178;53.042;6.406;2023-08-01T12:23:47;4.20;;;0.95;;
54263;SDS011;40178;53.042;6.406;2023-08-01T12:26:13;3.78;;;1.00;;
54263;SDS011;40178;53.042;6.406;2023-08-01T12:28:38;7.25;;;1.48;;
54263;SDS011;40178;53.042;6.406;2023-08-01T12:31:04;6.10;;;1.35;;
54263;SDS011;40178;53.042;6.406;2023-08-01T12:33:30;6.95;;;1.25;;
54263;SDS011;40178;53.042;6.406;2023-08-01T12:35:57;3.55;;;1.02;;
54263;SDS011;40178;53.042;6.406;2023-08-01T12:38:23;5.13;;;1.00;;
54263;SDS011;40178;53.042;6.406;2023-08-01T12:40:49;6.30;;;1.20;;
54263;SDS011;40178;53.042;6.406;2023-08-01T12:43:14;4.70;;;1.02;;
54263;SDS011;40178;53.042;6.406;2023-08-01T12:45:41;6.25;;;1.10;;
54263;SDS011;40178;53.042;6.406;2023-08-01T12:48:07;4.28;;;1.30;;
54263;SDS011;40178;53.042;6.406;2023-08-01T12:50:33;3.67;;;1.13;;
54263;SDS011;40178;53.042;6.406;2023-08-01T12:52:58;5.55;;;1.17;;
54263;SDS011;40178;53.042;6.406;2023-08-01T12:55:24;3.58;;;0.98;;
54263;SDS011;40178;53.042;6.406;2023-08-01T12:57:50;5.10;;;1.10;;
54263;SDS011;40178;53.042;6.406;2023-08-01T13:00:15;5.68;;;1.05;;
54263;SDS011;40178;53.042;6.406;2023-08-01T13:02:41;4.85;;;0.93;;
54263;SDS011;40178;53.042;6.406;2023-08-01T13:05:07;3.35;;;1.10;;
54263;SDS011;40178;53.042;6.406;2023-08-01T13:07:33;3.83;;;0.80;;
54263;SDS011;40178;53.042;6.406;2023-08-01T13:09:59;3.25;;;1.10;;
54263;SDS011;40178;53.042;6.406;2023-08-01T13:12:25;4.47;;;1.10;;
54263;SDS011;40178;53.042;6.406;2023-08-01T13:14:51;4.00;;;0.93;;
54263;SDS011;40178;53.042;6.406;2023-08-01T13:17:17;2.85;;;1.10;;
54263;SDS011;40178;53.042;6.406;2023-08-01T13:19:42;1.90;;;0.70;;
54263;SDS011;40178;53.042;6.406;2023-08-01T13:22:08;4.07;;;0.90;;
54263;SDS011;40178;53.042;6.406;2023-08-01T13:24:34;3.33;;;0.80;;
54263;SDS011;40178;53.042;6.406;2023-08-01T13:27:00;3.05;;;1.00;;
54263;SDS011;40178;53.042;6.406;2023-08-01T13:29:25;4.10;;;0.88;;
54263;SDS011;40178;53.042;6.406;2023-08-01T13:31:51;3.00;;;0.90;;
54263;SDS011;40178;53.042;6.406;2023-08-01T13:34:16;2.75;;;0.98;;
54263;SDS011;40178;53.042;6.406;2023-08-01T13:36:42;4.10;;;1.08;;
54263;SDS011;40178;53.042;6.406;2023-08-01T13:39:08;2.30;;;0.63;;
54263;SDS011;40178;53.042;6.406;2023-08-01T13:41:34;5.53;;;1.38;;
54263;SDS011;40178;53.042;6.406;2023-08-01T13:44:00;3.05;;;0.68;;
54263;SDS011;40178;53.042;6.406;2023-08-01T13:46:26;4.35;;;1.10;;
54263;SDS011;40178;53.042;6.406;2023-08-01T13:48:51;2.85;;;0.68;;
54263;SDS011;40178;53.042;6.406;2023-08-01T13:51:17;2.20;;;0.60;;
54263;SDS011;40178;53.042;6.406;2023-08-01T13:53:43;5.07;;;0.93;;
54263;SDS011;40178;53.042;6.406;2023-08-01T13:56:12;3.13;;;0.63;;
54263;SDS011;40178;53.042;6.406;2023-08-01T13:58:40;1.48;;;0.60;;
54263;SDS011;40178;53.042;6.406;2023-08-01T14:01:07;3.67;;;0.73;;
54263;SDS011;40178;53.042;6.406;2023-08-01T14:03:37;2.95;;;0.90;;
54263;SDS011;40178;53.042;6.406;2023-08-01T14:06:07;4.43;;;0.98;;
54263;SDS011;40178;53.042;6.406;2023-08-01T14:08:34;3.17;;;0.85;;
54263;SDS011;40178;53.042;6.406;2023-08-01T14:11:03;5.05;;;0.93;;
54263;SDS011;40178;53.042;6.406;2023-08-01T14:13:30;3.40;;;1.40;;
54263;SDS011;40178;53.042;6.406;2023-08-01T14:15:55;2.40;;;0.90;;
54263;SDS011;40178;53.042;6.406;2023-08-01T14:18:21;3.08;;;0.80;;
54263;SDS011;40178;53.042;6.406;2023-08-01T14:20:47;2.53;;;0.80;;
54263;SDS011;40178;53.042;6.406;2023-08-01T14:23:12;2.13;;;0.80;;
54263;SDS011;40178;53.042;6.406;2023-08-01T14:25:38;2.55;;;0.77;;
54263;SDS011;40178;53.042;6.406;2023-08-01T14:28:04;4.18;;;0.80;;
54263;SDS011;40178;53.042;6.406;2023-08-01T14:30:29;4.05;;;1.55;;
54263;SDS011;40178;53.042;6.406;2023-08-01T14:32:58;3.70;;;1.13;;
54263;SDS011;40178;53.042;6.406;2023-08-01T14:35:25;3.15;;;0.80;;
54263;SDS011;40178;53.042;6.406;2023-08-01T14:37:51;3.90;;;1.20;;
54263;SDS011;40178;53.042;6.406;2023-08-01T14:40:17;5.13;;;1.02;;
54263;SDS011;40178;53.042;6.406;2023-08-01T14:42:42;2.85;;;0.80;;
54263;SDS011;40178;53.042;6.406;2023-08-01T14:45:08;2.90;;;0.88;;